createdAt,value
2022-08-27T00:01:15.347Z,92.81
2022-08-27T00:04:03.654Z,92.47
2022-08-27T00:06:46.231Z,92.73
2022-08-27T00:09:34.461Z,93.32
2022-08-27T00:12:16.354Z,93.67
2022-08-27T00:15:06.799Z,94.20
2022-08-27T00:17:47.359Z,94.27
2022-08-27T00:20:37.450Z,94.48
2022-08-27T00:23:19.180Z,94.59
2022-08-27T00:26:07.567Z,94.22
2022-08-27T00:28:49.369Z,93.51
2022-08-27T00:31:36.506Z,94.65
2022-08-27T00:34:17.377Z,94.58
2022-08-27T00:37:06.881Z,94.97
2022-08-27T00:40:01.442Z,94.48
2022-08-27T00:42:53.472Z,94.43
2022-08-27T00:45:34.403Z,95.26
2022-08-27T00:48:26.204Z,96.15
2022-08-27T00:51:07.383Z,96.83
2022-08-27T00:53:58.509Z,96.35
2022-08-27T00:56:51.420Z,95.05
2022-08-27T00:59:39.019Z,94.91
2022-08-27T01:02:25.508Z,94.08
2022-08-27T01:05:17.474Z,95.54
2022-08-27T01:08:02.375Z,97.07
2022-08-27T01:10:52.024Z,98.79
2022-08-27T01:13:58.954Z,97.34
2022-08-27T01:16:47.679Z,97.01
2022-08-27T01:19:45.374Z,97.03
2022-08-27T01:22:54.534Z,96.11
2022-08-27T01:25:36.386Z,96.82
2022-08-27T01:28:26.834Z,97.80
2022-08-27T01:31:20.225Z,97.42
2022-08-27T01:34:11.311Z,98.00
2022-08-27T01:36:54.679Z,96.39
2022-08-27T01:39:47.489Z,95.63
2022-08-27T01:42:33.395Z,95.31
2022-08-27T01:45:30.551Z,96.41
2022-08-27T01:48:17.958Z,97.45
2022-08-27T01:51:04.500Z,97.45
2022-08-27T01:53:47.857Z,98.34
2022-08-27T01:56:36.051Z,98.84
2022-08-27T01:59:16.840Z,98.89
2022-08-27T02:02:07.675Z,99.35
2022-08-27T02:04:48.437Z,99.63
2022-08-27T02:07:36.540Z,99.43
2022-08-27T02:10:21.002Z,99.50
2022-08-27T02:13:09.596Z,99.11
2022-08-27T02:15:52.466Z,98.64
2022-08-27T02:18:41.906Z,97.66
2022-08-27T02:21:24.408Z,98.76
2022-08-27T02:24:11.540Z,98.89
2022-08-27T02:26:53.598Z,98.20
2022-08-27T02:29:42.662Z,98.61
2022-08-27T02:32:31.615Z,97.63
2022-08-27T02:35:22.595Z,97.38
2022-08-27T02:38:04.522Z,97.48
2022-08-27T02:40:54.134Z,97.60
2022-08-27T02:43:36.817Z,97.03
2022-08-27T02:46:23.578Z,97.69
2022-08-27T02:49:04.837Z,97.45
2022-08-27T02:51:51.947Z,97.95
2022-08-27T02:54:33.545Z,97.90
2022-08-27T02:57:22.734Z,96.01
2022-08-27T03:00:04.945Z,96.50
2022-08-27T03:02:52.373Z,96.99
2022-08-27T03:05:34.450Z,97.19
2022-08-27T03:08:23.713Z,97.55
2022-08-27T03:11:05.831Z,95.77
2022-08-27T03:13:55.870Z,95.54
2022-08-27T03:16:36.817Z,95.49
2022-08-27T03:19:26.950Z,95.29
2022-08-27T03:22:08.477Z,96.52
2022-08-27T03:24:58.178Z,96.26
2022-08-27T03:27:39.464Z,96.59
2022-08-27T03:30:28.564Z,97.16
2022-08-27T03:33:09.520Z,94.55
2022-08-27T03:35:58.979Z,95.65
2022-08-27T03:38:55.483Z,96.25
2022-08-27T03:41:54.968Z,96.42
2022-08-27T03:44:38.500Z,96.39
2022-08-27T03:47:26.898Z,97.71
2022-08-27T03:50:07.479Z,96.92
2022-08-27T03:52:56.621Z,96.60
2022-08-27T03:55:39.745Z,96.27
2022-08-27T03:58:27.553Z,97.54
2022-08-27T04:01:08.880Z,97.80
2022-08-27T04:03:56.560Z,99.35
2022-08-27T04:06:41.482Z,98.92
2022-08-27T04:09:30.042Z,99.42
2022-08-27T04:12:11.482Z,98.74
2022-08-27T04:14:58.620Z,96.96
2022-08-27T04:17:41.243Z,97.47
2022-08-27T04:20:35.430Z,96.64
2022-08-27T04:23:19.054Z,96.13
2022-08-27T04:26:06.641Z,96.57
2022-08-27T04:28:48.860Z,96.27
2022-08-27T04:31:37.249Z,95.94
2022-08-27T04:34:18.857Z,95.75
2022-08-27T04:37:10.575Z,96.95
2022-08-27T04:39:59.570Z,98.92
2022-08-27T04:42:40.850Z,100.00
2022-08-27T04:45:30.015Z,100.00
2022-08-27T04:48:10.829Z,98.33
2022-08-27T04:50:58.479Z,98.05
2022-08-27T04:53:40.496Z,98.26
2022-08-27T04:56:38.005Z,97.74
2022-08-27T04:59:24.683Z,98.11
2022-08-27T05:02:07.975Z,98.72
2022-08-27T05:04:56.455Z,97.37
2022-08-27T05:07:37.922Z,97.75
2022-08-27T05:10:25.626Z,96.75
2022-08-27T05:13:10.163Z,94.39
2022-08-27T05:16:05.744Z,94.34
2022-08-27T05:18:49.512Z,95.44
2022-08-27T05:21:39.747Z,96.53
2022-08-27T05:24:25.262Z,97.21
2022-08-27T05:27:14.165Z,94.29
2022-08-27T05:29:56.635Z,92.85
2022-08-27T05:32:44.637Z,92.34
2022-08-27T05:35:29.791Z,91.87
2022-08-27T05:38:17.048Z,91.73
2022-08-27T05:41:17.524Z,91.68
2022-08-27T05:44:36.787Z,93.07
2022-08-27T05:47:10.839Z,93.10
2022-08-27T05:49:59.889Z,93.54
2022-08-27T05:52:43.279Z,92.70
2022-08-27T05:55:32.633Z,92.12
2022-08-27T05:58:13.568Z,86.68
2022-08-27T06:01:09.404Z,80.52
2022-08-27T06:03:51.991Z,73.42
2022-08-27T06:06:45.680Z,65.92
2022-08-27T06:12:40.054Z,55.25
2022-08-27T06:15:21.440Z,52.14
2022-08-27T06:18:08.656Z,48.93
2022-08-27T06:20:50.123Z,46.92
2022-08-27T06:23:37.602Z,45.13
2022-08-27T06:26:21.404Z,43.74
2022-08-27T06:29:14.264Z,42.75
2022-08-27T06:31:56.629Z,41.75
2022-08-27T06:34:45.768Z,40.79
2022-08-27T06:37:26.586Z,40.96
2022-08-27T06:40:22.594Z,40.55
2022-08-27T06:43:11.433Z,40.68
2022-08-27T06:45:53.586Z,40.47
2022-08-27T06:48:45.851Z,40.25
2022-08-27T06:51:30.700Z,40.21
2022-08-27T06:54:20.385Z,40.37
2022-08-27T06:57:08.018Z,40.58
2022-08-27T06:59:55.568Z,40.86
2022-08-27T07:02:35.915Z,41.14
2022-08-27T07:05:25.451Z,41.03
2022-08-27T07:08:07.761Z,40.66
2022-08-27T07:10:55.975Z,39.96
2022-08-27T07:13:36.668Z,40.08
2022-08-27T07:16:30.681Z,39.61
2022-08-27T07:19:12.300Z,39.77
2022-08-27T07:22:00.975Z,40.87
2022-08-27T07:24:41.879Z,42.65
2022-08-27T07:27:30.330Z,46.29
2022-08-27T07:30:16.719Z,47.70
2022-08-27T07:33:04.594Z,47.34
2022-08-27T07:35:47.055Z,48.13
2022-08-27T07:38:35.873Z,49.40
2022-08-27T07:41:27.548Z,50.27
2022-08-27T07:44:34.439Z,50.66
2022-08-27T07:47:24.850Z,48.86
2022-08-27T07:50:07.714Z,47.36
2022-08-27T07:52:55.480Z,47.79
2022-08-27T07:55:36.665Z,48.12
2022-08-27T07:58:26.724Z,46.72
2022-08-27T08:01:10.857Z,45.99
2022-08-27T08:03:59.630Z,45.25
2022-08-27T08:06:43.599Z,45.79
2022-08-27T08:09:32.284Z,46.57
2022-08-27T08:12:21.140Z,45.36
2022-08-27T08:15:18.233Z,44.98
2022-08-27T08:17:58.842Z,45.99
2022-08-27T08:20:58.188Z,44.93
2022-08-27T08:23:43.234Z,44.29
2022-08-27T08:26:29.780Z,43.96
2022-08-27T08:29:13.333Z,43.36
2022-08-27T08:32:05.737Z,42.56
2022-08-27T08:34:48.206Z,43.06
2022-08-27T08:37:36.355Z,42.82
2022-08-27T08:40:47.370Z,42.08
2022-08-27T08:43:51.697Z,42.26
2022-08-27T08:46:48.708Z,43.36
2022-08-27T08:50:19.937Z,44.89
2022-08-27T08:53:00.748Z,43.79
2022-08-27T08:55:59.917Z,44.18
2022-08-27T08:58:57.716Z,45.04
2022-08-27T09:01:45.966Z,45.10
2022-08-27T09:04:28.040Z,43.68
2022-08-27T09:07:26.308Z,45.07
2022-08-27T09:10:52.398Z,45.53
2022-08-27T09:13:45.571Z,44.31
2022-08-27T09:16:26.931Z,44.45
2022-08-27T09:19:23.989Z,44.80
2022-08-27T09:22:18.692Z,44.22
2022-08-27T09:25:39.114Z,44.60
2022-08-27T09:28:51.160Z,45.13
2022-08-27T09:31:43.762Z,47.96
2022-08-27T09:34:26.195Z,48.65
2022-08-27T09:37:34.596Z,47.13
2022-08-27T09:40:38.769Z,48.25
2022-08-27T09:43:22.643Z,45.00
2022-08-27T09:46:24.807Z,44.45
2022-08-27T09:49:22.348Z,44.35
2022-08-27T09:52:09.419Z,44.32
2022-08-27T09:54:55.815Z,43.44
2022-08-27T09:57:49.056Z,42.53
2022-08-27T10:00:46.258Z,41.46
2022-08-27T10:03:33.521Z,41.14
2022-08-27T10:06:15.020Z,39.73
2022-08-27T10:09:23.731Z,39.98
2022-08-27T10:12:22.222Z,40.03
2022-08-27T10:15:14.999Z,38.60
2022-08-27T10:18:22.821Z,38.87
2022-08-27T10:21:34.691Z,39.04
2022-08-27T10:24:40.907Z,39.06
2022-08-27T10:27:40.383Z,39.36
2022-08-27T10:30:29.386Z,38.79
2022-08-27T10:33:48.877Z,38.70
2022-08-27T10:36:31.872Z,38.84
2022-08-27T10:39:29.710Z,38.71
2022-08-27T10:42:37.816Z,38.25
2022-08-27T10:45:42.235Z,38.62
2022-08-27T10:48:44.828Z,37.30
2022-08-27T10:51:30.778Z,37.63
2022-08-27T10:54:50.837Z,36.95
2022-08-27T10:57:55.552Z,37.27
2022-08-27T11:01:04.152Z,37.18
2022-08-27T11:03:48.725Z,37.31
2022-08-27T11:06:48.827Z,37.25
2022-08-27T11:09:57.777Z,36.50
2022-08-27T11:12:51.394Z,37.58
2022-08-27T11:15:42.968Z,38.08
2022-08-27T11:18:40.889Z,38.14
2022-08-27T11:21:31.787Z,36.63
2022-08-27T11:24:57.437Z,36.45
2022-08-27T11:27:40.809Z,35.80
2022-08-27T11:30:45.895Z,34.61
2022-08-27T11:33:37.155Z,35.42
2022-08-27T11:37:04.904Z,35.77
2022-08-27T11:40:25.194Z,34.94
2022-08-27T11:43:19.927Z,35.58
2022-08-27T11:46:10.746Z,36.95
2022-08-27T11:49:05.918Z,36.02
2022-08-27T11:51:47.840Z,35.71
2022-08-27T11:54:53.066Z,36.70
2022-08-27T11:57:34.164Z,36.97
2022-08-27T12:00:28.054Z,36.36
2022-08-27T12:03:11.944Z,37.07
2022-08-27T12:06:01.958Z,35.04
2022-08-27T12:08:45.167Z,34.35
2022-08-27T12:11:56.513Z,34.46
2022-08-27T12:15:00.262Z,34.65
2022-08-27T12:18:14.905Z,35.20
2022-08-27T12:24:49.291Z,34.91
2022-08-27T12:27:41.831Z,33.95
2022-08-27T12:30:37.870Z,33.13
2022-08-27T12:33:20.773Z,32.83
2022-08-27T12:36:27.970Z,34.94
2022-08-27T12:39:24.492Z,34.67
2022-08-27T12:42:19.947Z,35.27
2022-08-27T12:45:02.795Z,34.11
2022-08-27T12:47:51.672Z,34.09
2022-08-27T12:50:36.908Z,34.04
2022-08-27T12:53:41.526Z,33.93
2022-08-27T12:56:52.794Z,35.10
2022-08-27T12:59:50.103Z,35.60
2022-08-27T13:02:51.884Z,36.47
2022-08-27T13:05:57.650Z,36.43
2022-08-27T13:08:41.424Z,37.73
2022-08-27T13:11:33.226Z,37.57
2022-08-27T13:14:18.181Z,37.06
2022-08-27T13:17:11.903Z,36.89
2022-08-27T13:19:59.832Z,37.38
2022-08-27T13:23:01.281Z,37.23
2022-08-27T13:25:48.290Z,34.48
2022-08-27T13:28:34.119Z,33.04
2022-08-27T13:31:27.779Z,33.64
2022-08-27T13:34:11.904Z,33.46
2022-08-27T13:37:14.831Z,33.53
2022-08-27T13:40:00.507Z,33.37
2022-08-27T13:42:51.976Z,33.26
2022-08-27T13:45:33.108Z,33.72
2022-08-27T13:48:25.987Z,34.52
2022-08-27T13:51:09.166Z,34.24
2022-08-27T13:54:15.067Z,33.79
2022-08-27T13:56:57.932Z,34.03
2022-08-27T13:59:47.747Z,33.99
2022-08-27T14:02:34.628Z,33.50
2022-08-27T14:05:36.157Z,33.77
2022-08-27T14:08:25.574Z,33.71
2022-08-27T14:11:17.324Z,33.70
2022-08-27T14:14:00.419Z,33.83
2022-08-27T14:16:49.916Z,33.62
2022-08-27T14:19:40.228Z,33.22
2022-08-27T14:22:27.608Z,33.01
2022-08-27T14:25:09.346Z,33.34
2022-08-27T14:28:01.190Z,33.37
2022-08-27T14:30:42.509Z,33.30
2022-08-27T14:33:31.779Z,33.07
2022-08-27T14:36:13.452Z,32.53
2022-08-27T14:39:00.816Z,32.96
2022-08-27T14:41:45.602Z,33.16
2022-08-27T14:44:36.367Z,33.93
2022-08-27T14:47:18.494Z,34.06
2022-08-27T14:50:05.490Z,34.45
2022-08-27T14:52:47.317Z,33.80
2022-08-27T14:55:38.324Z,34.62
2022-08-27T14:58:19.468Z,35.27
2022-08-27T15:01:10.466Z,35.32
2022-08-27T15:03:55.934Z,35.50
2022-08-27T15:06:47.134Z,35.30
2022-08-27T15:09:29.529Z,35.26
2022-08-27T15:12:25.770Z,35.12
2022-08-27T15:15:08.172Z,34.96
2022-08-27T15:17:56.379Z,36.57
2022-08-27T15:20:51.350Z,36.66
2022-08-27T15:23:39.391Z,36.25
2022-08-27T15:26:21.944Z,36.16
2022-08-27T15:29:08.481Z,36.12
2022-08-27T15:31:49.483Z,36.38
2022-08-27T15:34:37.326Z,36.57
2022-08-27T15:37:20.191Z,36.79
2022-08-27T15:40:12.388Z,36.91
2022-08-27T15:42:59.636Z,37.76
2022-08-27T15:45:48.400Z,38.01
2022-08-27T15:48:30.028Z,38.74
2022-08-27T15:51:21.653Z,38.47
2022-08-27T15:54:04.454Z,39.51
2022-08-27T15:56:51.822Z,39.63
2022-08-27T15:59:33.364Z,39.53
2022-08-27T16:02:32.012Z,39.83
2022-08-27T16:05:13.889Z,39.72
2022-08-27T16:08:01.884Z,39.92
2022-08-27T16:10:43.315Z,39.26
2022-08-27T16:13:31.819Z,38.63
2022-08-27T16:16:13.557Z,38.92
2022-08-27T16:19:01.307Z,39.37
2022-08-27T16:21:51.109Z,39.02
2022-08-27T16:24:32.770Z,39.23
2022-08-27T16:27:19.487Z,39.42
2022-08-27T16:30:00.682Z,39.85
2022-08-27T16:32:47.971Z,40.54
2022-08-27T16:35:30.203Z,40.62
2022-08-27T16:38:18.577Z,40.71
2022-08-27T16:41:01.540Z,40.89
2022-08-27T16:43:49.311Z,40.95
2022-08-27T16:46:30.941Z,40.91
2022-08-27T16:49:38.120Z,40.51
2022-08-27T16:52:19.590Z,40.17
2022-08-27T16:55:07.822Z,40.02
2022-08-27T16:57:48.417Z,40.09
2022-08-27T17:00:36.526Z,39.11
2022-08-27T17:03:18.430Z,39.54
2022-08-27T17:06:07.671Z,39.88
2022-08-27T17:08:52.883Z,39.34
2022-08-27T17:11:44.604Z,40.09
2022-08-27T17:14:26.198Z,40.01
2022-08-27T17:17:15.084Z,40.76
2022-08-27T17:19:56.073Z,40.60
2022-08-27T17:22:46.590Z,40.88
2022-08-27T17:25:30.035Z,41.24
2022-08-27T17:28:17.699Z,41.65
2022-08-27T17:30:58.670Z,41.19
2022-08-27T17:33:51.599Z,41.40
2022-08-27T17:36:37.097Z,41.44
2022-08-27T17:39:25.605Z,41.51
2022-08-27T17:42:06.844Z,42.35
2022-08-27T17:44:53.547Z,42.51
2022-08-27T17:47:35.591Z,42.58
2022-08-27T17:50:26.130Z,42.82
2022-08-27T17:53:07.965Z,42.78
2022-08-27T17:55:54.565Z,43.11
2022-08-27T17:58:36.472Z,43.12
2022-08-27T18:01:32.062Z,43.46
2022-08-27T18:04:13.775Z,43.60
2022-08-27T18:07:02.575Z,43.74
2022-08-27T18:09:43.453Z,43.80
2022-08-27T18:12:34.006Z,43.79
2022-08-27T18:15:25.899Z,43.53
2022-08-27T18:18:13.791Z,44.17
2022-08-27T18:21:10.854Z,43.63
2022-08-27T18:23:59.380Z,44.00
2022-08-27T18:26:42.861Z,44.46
2022-08-27T18:29:30.596Z,44.83
2022-08-27T18:32:12.684Z,44.62
2022-08-27T18:35:02.386Z,44.89
2022-08-27T18:37:45.255Z,45.17
2022-08-27T18:40:37.665Z,45.44
2022-08-27T18:43:22.724Z,46.31
2022-08-27T18:46:13.839Z,46.96
2022-08-27T18:48:55.487Z,46.78
2022-08-27T18:51:48.080Z,47.32
2022-08-27T18:54:33.488Z,48.35
2022-08-27T18:57:20.673Z,48.74
2022-08-27T19:00:01.519Z,48.83
2022-08-27T19:02:52.729Z,48.29
2022-08-27T19:05:33.498Z,48.72
2022-08-27T19:08:25.651Z,48.64
2022-08-27T19:11:06.518Z,48.88
2022-08-27T19:13:54.731Z,49.26
2022-08-27T19:16:50.636Z,49.14
2022-08-27T19:19:39.280Z,49.78
2022-08-27T19:22:28.484Z,50.26
2022-08-27T19:25:09.841Z,50.73
2022-08-27T19:27:59.872Z,51.23
2022-08-27T19:30:42.524Z,51.55
2022-08-27T19:33:30.583Z,52.27
2022-08-27T19:36:15.796Z,53.71
2022-08-27T19:39:03.544Z,54.75
2022-08-27T19:41:44.884Z,55.63
2022-08-27T19:44:32.884Z,56.58
2022-08-27T19:47:15.704Z,57.46
2022-08-27T19:50:06.956Z,57.82
2022-08-27T19:52:48.459Z,58.28
2022-08-27T19:55:35.524Z,58.15
2022-08-27T19:58:16.669Z,58.31
2022-08-27T20:01:05.536Z,57.01
2022-08-27T20:03:47.097Z,55.43
2022-08-27T20:06:35.147Z,56.00
2022-08-27T20:09:17.984Z,55.26
2022-08-27T20:12:06.290Z,53.44
2022-08-27T20:14:51.705Z,52.72
2022-08-27T20:17:41.299Z,53.30
2022-08-27T20:20:25.680Z,53.38
2022-08-27T20:23:14.561Z,52.59
2022-08-27T20:26:01.179Z,52.80
2022-08-27T20:28:48.600Z,52.94
2022-08-27T20:31:30.386Z,53.32
2022-08-27T20:37:25.950Z,53.33
2022-08-27T20:40:27.046Z,53.66
2022-08-27T20:43:07.704Z,54.29
2022-08-27T20:45:57.718Z,54.84
2022-08-27T20:48:38.958Z,55.12
2022-08-27T20:51:27.362Z,54.80
2022-08-27T20:54:08.705Z,54.64
2022-08-27T20:56:56.673Z,54.80
2022-08-27T20:59:58.355Z,54.98
2022-08-27T21:02:47.937Z,55.27
2022-08-27T21:05:28.691Z,55.61
2022-08-27T21:08:16.716Z,55.33
2022-08-27T21:11:03.416Z,56.02
2022-08-27T21:13:56.399Z,56.17
2022-08-27T21:16:37.690Z,56.26
2022-08-27T21:22:19.566Z,57.61
2022-08-27T21:25:08.150Z,57.63
2022-08-27T21:27:48.706Z,57.53
2022-08-27T21:30:36.653Z,58.00
2022-08-27T21:33:18.526Z,57.92
2022-08-27T21:36:10.013Z,58.12
2022-08-27T21:38:52.870Z,58.39
2022-08-27T21:41:39.800Z,58.28
2022-08-27T21:44:25.385Z,58.55
2022-08-27T21:47:14.477Z,58.92
2022-08-27T21:49:55.684Z,58.90
2022-08-27T21:52:43.602Z,59.06
2022-08-27T21:55:24.772Z,59.74
2022-08-27T21:58:13.078Z,60.18
2022-08-27T22:00:55.800Z,60.46
2022-08-27T22:03:46.912Z,60.44
2022-08-27T22:06:28.852Z,60.36
2022-08-27T22:09:16.601Z,60.45
2022-08-27T22:11:58.741Z,60.95
2022-08-27T22:14:47.613Z,60.99
2022-08-27T22:17:29.124Z,61.13
2022-08-27T22:20:18.153Z,61.69
2022-08-27T22:23:05.715Z,61.90
2022-08-27T22:25:50.880Z,62.14
2022-08-27T22:28:38.202Z,62.92
2022-08-27T22:31:18.927Z,63.01
2022-08-27T22:34:08.231Z,63.25
2022-08-27T22:37:03.429Z,63.46
2022-08-27T22:39:56.104Z,64.10
2022-08-27T22:42:43.826Z,64.35
2022-08-27T22:45:32.079Z,64.94
2022-08-27T22:48:12.948Z,65.14
2022-08-27T22:51:02.872Z,65.30
2022-08-27T22:53:49.381Z,66.06
2022-08-27T22:56:56.014Z,66.20
2022-08-27T22:59:44.147Z,66.90
2022-08-27T23:02:33.053Z,67.42
2022-08-27T23:05:13.870Z,67.71
2022-08-27T23:08:01.857Z,68.18
2022-08-27T23:10:43.740Z,68.56
2022-08-27T23:13:31.601Z,68.85
2022-08-27T23:16:16.128Z,69.54
2022-08-27T23:19:03.751Z,70.02
2022-08-27T23:22:00.588Z,70.23
2022-08-27T23:25:08.856Z,70.90
2022-08-27T23:27:49.838Z,71.58
2022-08-27T23:30:38.779Z,71.54
2022-08-27T23:33:20.644Z,72.14
2022-08-27T23:36:10.775Z,72.25
2022-08-27T23:38:53.124Z,72.31
2022-08-27T23:41:39.751Z,72.52
2022-08-27T23:44:20.688Z,72.91
2022-08-27T23:47:11.604Z,72.89
2022-08-27T23:49:53.405Z,73.27
2022-08-27T23:52:40.742Z,73.36
2022-08-27T23:55:21.666Z,73.74
2022-08-27T23:58:11.234Z,74.49
